createdAt,value
2023-02-13T00:01:28.450Z,6.70
2023-02-13T00:03:56.810Z,6.60
2023-02-13T00:06:25.469Z,6.60
2023-02-13T00:08:55.474Z,6.60
2023-02-13T00:11:23.905Z,6.70
2023-02-13T00:13:53.506Z,6.70
2023-02-13T00:16:21.842Z,6.70
2023-02-13T00:18:50.196Z,6.70
2023-02-13T00:21:18.610Z,6.80
2023-02-13T00:23:47.214Z,6.80
2023-02-13T00:26:18.777Z,6.80
2023-02-13T00:28:47.617Z,6.80
2023-02-13T00:31:18.309Z,6.80
2023-02-13T00:33:47.262Z,6.80
2023-02-13T00:36:18.599Z,6.80
2023-02-13T00:38:47.443Z,6.80
2023-02-13T00:41:18.294Z,6.70
2023-02-13T00:43:47.825Z,6.70
2023-02-13T00:46:16.585Z,6.70
2023-02-13T00:48:45.685Z,6.60
2023-02-13T00:51:14.621Z,6.60
2023-02-13T00:53:43.158Z,6.50
2023-02-13T00:56:11.884Z,6.50
2023-02-13T00:58:41.689Z,6.40
2023-02-13T01:01:10.022Z,6.30
2023-02-13T01:03:38.457Z,6.20
2023-02-13T01:06:08.002Z,6.20
2023-02-13T01:08:36.962Z,6.20
2023-02-13T01:11:05.797Z,6.20
2023-02-13T01:13:34.169Z,6.20
2023-02-13T01:16:04.202Z,6.20
2023-02-13T01:18:33.393Z,6.10
2023-02-13T01:21:05.109Z,6.10
2023-02-13T01:23:34.983Z,6.00
2023-02-13T01:26:06.210Z,6.00
2023-02-13T01:28:35.159Z,6.00
2023-02-13T01:31:04.989Z,5.90
2023-02-13T01:33:33.335Z,5.80
2023-02-13T01:36:07.367Z,5.70
2023-02-13T01:38:35.752Z,5.60
2023-02-13T01:41:04.165Z,5.50
2023-02-13T01:43:49.299Z,5.40
2023-02-13T01:46:26.416Z,5.20
2023-02-13T01:48:59.662Z,5.10
2023-02-13T01:51:33.121Z,4.90
2023-02-13T01:54:05.765Z,4.80
2023-02-13T01:56:38.139Z,4.70
2023-02-13T01:59:15.206Z,4.60
2023-02-13T02:01:46.148Z,4.40
2023-02-13T02:04:16.971Z,4.20
2023-02-13T02:06:51.537Z,4.20
2023-02-13T02:09:24.606Z,4.10
2023-02-13T02:12:01.209Z,4.00
2023-02-13T02:14:29.642Z,3.90
2023-02-13T02:16:59.776Z,3.80
2023-02-13T02:19:39.458Z,3.70
2023-02-13T02:22:54.967Z,3.40
2023-02-13T02:26:01.019Z,3.30
2023-02-13T02:28:51.557Z,3.20
2023-02-13T02:32:09.190Z,3.30
2023-02-13T02:34:49.225Z,3.30
2023-02-13T02:37:35.051Z,3.20
2023-02-13T02:40:17.763Z,3.30
2023-02-13T02:43:05.996Z,3.20
2023-02-13T02:45:42.286Z,3.20
2023-02-13T02:48:40.617Z,3.20
2023-02-13T02:51:20.834Z,3.20
2023-02-13T02:54:03.544Z,3.10
2023-02-13T02:56:39.196Z,3.00
2023-02-13T02:59:30.168Z,2.80
2023-02-13T03:02:17.989Z,2.80
2023-02-13T03:05:08.809Z,2.80
2023-02-13T03:07:37.253Z,2.70
2023-02-13T03:10:27.649Z,2.60
2023-02-13T03:13:20.569Z,2.60
2023-02-13T03:16:09.345Z,2.70
2023-02-13T03:19:00.433Z,2.70
2023-02-13T03:21:56.869Z,2.70
2023-02-13T03:24:29.837Z,2.60
2023-02-13T03:27:07.117Z,2.60
2023-02-13T03:30:04.610Z,2.60
2023-02-13T03:32:42.223Z,2.70
2023-02-13T03:35:41.720Z,2.70
2023-02-13T03:38:19.680Z,2.60
2023-02-13T03:41:10.484Z,2.50
2023-02-13T03:43:48.309Z,2.50
2023-02-13T03:46:17.801Z,2.40
2023-02-13T03:49:05.180Z,2.40
2023-02-13T03:51:39.450Z,2.40
2023-02-13T03:54:19.746Z,2.40
2023-02-13T03:57:07.812Z,2.40
2023-02-13T03:59:40.359Z,2.40
2023-02-13T04:02:13.954Z,2.30
2023-02-13T04:04:50.149Z,2.30
2023-02-13T04:07:30.819Z,2.20
2023-02-13T04:10:04.219Z,2.20
2023-02-13T04:12:40.206Z,2.10
2023-02-13T04:15:16.045Z,2.10
2023-02-13T04:17:50.334Z,1.90
2023-02-13T04:20:19.736Z,1.90
2023-02-13T04:22:49.766Z,1.80
2023-02-13T04:25:21.440Z,1.80
2023-02-13T04:27:49.848Z,1.70
2023-02-13T04:30:18.501Z,1.70
2023-02-13T04:32:46.798Z,1.80
2023-02-13T04:35:15.422Z,1.90
2023-02-13T04:37:43.734Z,1.90
2023-02-13T04:40:13.185Z,1.90
2023-02-13T04:42:42.883Z,1.90
2023-02-13T04:45:11.711Z,1.90
2023-02-13T04:47:39.978Z,1.90
2023-02-13T04:50:09.403Z,1.80
2023-02-13T04:52:37.782Z,2.00
2023-02-13T04:55:07.244Z,2.00
2023-02-13T04:57:35.535Z,2.10
2023-02-13T05:00:06.897Z,2.20
2023-02-13T05:02:35.210Z,2.30
2023-02-13T05:05:03.554Z,2.40
2023-02-13T05:07:31.938Z,2.50
2023-02-13T05:10:00.227Z,3.00
2023-02-13T05:12:28.633Z,3.10
2023-02-13T05:14:57.344Z,3.30
2023-02-13T05:17:28.362Z,3.50
2023-02-13T05:19:56.797Z,3.60
2023-02-13T05:22:47.615Z,3.70
2023-02-13T05:25:16.485Z,3.80
2023-02-13T05:27:44.893Z,4.00
2023-02-13T05:30:15.369Z,4.20
2023-02-13T05:32:45.014Z,4.30
2023-02-13T05:35:13.444Z,4.40
2023-02-13T05:37:41.781Z,4.50
2023-02-13T05:40:11.926Z,4.50
2023-02-13T05:42:40.366Z,4.60
2023-02-13T05:45:10.235Z,4.70
2023-02-13T05:47:38.721Z,4.80
2023-02-13T05:50:10.239Z,4.70
2023-02-13T05:52:38.647Z,4.80
2023-02-13T05:55:08.196Z,4.90
2023-02-13T05:57:36.630Z,4.90
2023-02-13T06:00:07.302Z,4.90
2023-02-13T06:02:35.654Z,5.00
2023-02-13T06:05:03.961Z,5.00
2023-02-13T06:07:33.874Z,5.00
2023-02-13T06:10:02.329Z,5.00
2023-02-13T06:12:30.744Z,4.90
2023-02-13T06:14:59.201Z,4.90
2023-02-13T06:17:27.791Z,4.90
2023-02-13T06:19:56.179Z,4.90
2023-02-13T06:22:24.526Z,5.00
2023-02-13T06:24:55.590Z,5.00
2023-02-13T06:27:23.842Z,5.00
2023-02-13T06:29:52.137Z,4.90
2023-02-13T06:32:20.484Z,4.90
2023-02-13T06:34:48.774Z,4.90
2023-02-13T06:37:17.148Z,4.90
2023-02-13T06:39:45.526Z,4.90
2023-02-13T06:42:15.256Z,4.90
2023-02-13T06:44:43.577Z,4.90
2023-02-13T06:47:12.176Z,4.80
2023-02-13T06:49:40.495Z,4.80
2023-02-13T06:52:09.078Z,4.80
2023-02-13T06:54:47.202Z,4.80
2023-02-13T06:57:18.010Z,4.80
2023-02-13T06:59:46.350Z,4.80
2023-02-13T07:02:15.211Z,4.90
2023-02-13T07:04:43.617Z,4.90
2023-02-13T07:07:12.205Z,4.80
2023-02-13T07:09:41.184Z,4.80
2023-02-13T07:12:09.854Z,4.80
2023-02-13T07:14:39.544Z,4.80
2023-02-13T07:17:07.953Z,4.90
2023-02-13T07:19:36.343Z,4.80
2023-02-13T07:22:04.730Z,4.90
2023-02-13T07:24:35.413Z,4.90
2023-02-13T07:27:03.764Z,4.90
2023-02-13T07:29:32.091Z,4.90
2023-02-13T07:32:01.828Z,5.00
2023-02-13T07:34:30.287Z,5.00
2023-02-13T07:36:58.651Z,5.00
2023-02-13T07:39:27.112Z,5.10
2023-02-13T07:41:55.607Z,5.10
2023-02-13T07:44:23.954Z,5.10
2023-02-13T07:46:52.357Z,5.20
2023-02-13T07:49:22.111Z,5.20
2023-02-13T07:51:50.486Z,5.30
2023-02-13T07:54:19.019Z,5.40
2023-02-13T07:56:47.307Z,5.50
2023-02-13T07:59:15.827Z,5.50
2023-02-13T08:01:44.199Z,5.60
2023-02-13T08:04:12.719Z,5.70
2023-02-13T08:06:43.268Z,5.80
2023-02-13T08:09:39.637Z,5.90
2023-02-13T08:12:10.941Z,6.00
2023-02-13T08:14:39.327Z,6.10
2023-02-13T08:17:07.727Z,6.20
2023-02-13T08:19:36.197Z,6.30
2023-02-13T08:22:06.063Z,6.40
2023-02-13T08:24:34.693Z,6.50
2023-02-13T08:27:03.053Z,6.60
2023-02-13T08:29:31.368Z,6.80
2023-02-13T08:31:59.736Z,6.90
2023-02-13T08:34:28.287Z,7.00
2023-02-13T08:36:56.803Z,7.10
2023-02-13T08:39:26.567Z,7.20
2023-02-13T08:41:54.958Z,7.30
2023-02-13T08:44:23.424Z,7.50
2023-02-13T08:46:51.797Z,7.60
2023-02-13T08:49:20.117Z,7.70
2023-02-13T08:51:48.414Z,7.80
2023-02-13T08:54:17.571Z,7.90
2023-02-13T08:56:47.239Z,8.10
2023-02-13T08:59:15.726Z,8.20
2023-02-13T09:01:44.286Z,8.30
2023-02-13T09:04:15.822Z,8.50
2023-02-13T09:06:44.095Z,8.60
2023-02-13T09:09:13.031Z,8.70
2023-02-13T09:11:41.317Z,8.80
2023-02-13T09:14:11.116Z,8.80
2023-02-13T09:16:39.457Z,8.90
2023-02-13T09:19:08.544Z,8.90
2023-02-13T09:21:37.111Z,9.10
2023-02-13T09:24:09.792Z,9.20
2023-02-13T09:26:38.169Z,9.30
2023-02-13T09:29:06.528Z,9.30
2023-02-13T09:31:36.351Z,9.50
2023-02-13T09:34:04.868Z,9.50
2023-02-13T09:36:33.644Z,9.60
2023-02-13T09:39:01.947Z,9.70
2023-02-13T09:41:33.543Z,9.80
2023-02-13T09:44:06.299Z,9.90
2023-02-13T09:46:39.114Z,10.00
2023-02-13T09:49:13.330Z,10.10
2023-02-13T09:51:44.192Z,10.30
2023-02-13T09:54:19.144Z,10.40
2023-02-13T09:57:00.562Z,10.40
2023-02-13T09:59:44.351Z,10.50
2023-02-13T10:02:53.449Z,10.70
2023-02-13T10:05:48.191Z,10.90
2023-02-13T10:08:35.614Z,10.80
2023-02-13T10:11:21.440Z,10.90
2023-02-13T10:14:02.078Z,10.90
2023-02-13T10:16:39.489Z,11.00
2023-02-13T10:19:23.220Z,10.90
2023-02-13T10:21:56.141Z,10.90
2023-02-13T10:24:35.290Z,11.10
2023-02-13T10:27:17.621Z,11.20
2023-02-13T10:30:09.578Z,11.20
2023-02-13T10:32:48.809Z,11.30
2023-02-13T10:35:26.134Z,11.40
2023-02-13T10:37:58.699Z,11.50
2023-02-13T10:40:34.007Z,11.90
2023-02-13T10:43:10.629Z,12.10
2023-02-13T10:46:07.993Z,12.10
2023-02-13T10:49:06.105Z,12.60
2023-02-13T10:51:43.467Z,12.70
2023-02-13T10:54:44.714Z,12.70
2023-02-13T10:57:15.753Z,12.70
2023-02-13T11:00:06.088Z,13.00
2023-02-13T11:02:37.021Z,13.20
2023-02-13T11:05:18.307Z,13.70
2023-02-13T11:07:49.426Z,14.20
2023-02-13T11:10:21.433Z,14.40
2023-02-13T11:12:50.757Z,14.30
2023-02-13T11:15:26.787Z,14.30
2023-02-13T11:17:57.209Z,14.60
2023-02-13T11:20:34.845Z,14.90
2023-02-13T11:23:38.841Z,15.30
2023-02-13T11:26:10.085Z,15.40
2023-02-13T11:28:41.500Z,15.40
2023-02-13T11:31:26.505Z,15.60
2023-02-13T11:33:57.401Z,15.80
2023-02-13T11:36:30.371Z,15.80
2023-02-13T11:39:06.853Z,15.70
2023-02-13T11:41:42.418Z,15.60
2023-02-13T11:44:25.420Z,15.50
2023-02-13T11:46:55.806Z,15.40
2023-02-13T11:49:26.551Z,15.30
2023-02-13T11:51:57.625Z,15.30
2023-02-13T11:54:33.264Z,15.30
2023-02-13T11:57:05.882Z,15.20
2023-02-13T11:59:43.193Z,15.30
2023-02-13T12:02:19.307Z,15.30
2023-02-13T12:04:49.756Z,15.40
2023-02-13T12:07:23.452Z,15.20
2023-02-13T12:10:02.102Z,15.10
2023-02-13T12:12:42.315Z,14.90
2023-02-13T12:15:20.167Z,14.80
2023-02-13T12:18:04.255Z,14.60
2023-02-13T12:20:52.407Z,14.40
2023-02-13T12:23:34.171Z,14.30
2023-02-13T12:26:28.426Z,14.30
2023-02-13T12:29:20.850Z,14.20
2023-02-13T12:32:08.911Z,14.20
2023-02-13T12:35:16.860Z,14.10
2023-02-13T12:38:03.320Z,14.00
2023-02-13T12:40:58.227Z,13.80
2023-02-13T12:43:58.952Z,13.80
2023-02-13T12:46:33.850Z,13.80
2023-02-13T12:49:18.111Z,13.80
2023-02-13T12:51:55.976Z,13.80
2023-02-13T12:54:45.388Z,13.80
2023-02-13T12:57:29.006Z,13.80
2023-02-13T13:00:18.515Z,13.80
2023-02-13T13:03:25.710Z,13.90
2023-02-13T13:06:20.229Z,13.80
2023-02-13T13:09:23.362Z,13.70
2023-02-13T13:12:12.393Z,13.70
2023-02-13T13:14:51.350Z,13.60
2023-02-13T13:17:36.787Z,13.60
2023-02-13T13:20:41.390Z,13.60
2023-02-13T13:23:17.519Z,13.60
2023-02-13T13:25:54.198Z,13.50
2023-02-13T13:28:25.157Z,13.50
2023-02-13T13:30:54.947Z,13.40
2023-02-13T13:33:28.131Z,13.30
2023-02-13T13:36:05.345Z,13.30
2023-02-13T13:38:51.812Z,13.30
2023-02-13T13:41:31.594Z,13.30
2023-02-13T13:44:14.171Z,13.30
2023-02-13T13:46:54.456Z,13.20
2023-02-13T13:49:37.188Z,13.20
2023-02-13T13:52:22.637Z,13.30
2023-02-13T13:54:53.760Z,13.20
2023-02-13T13:57:24.240Z,13.20
2023-02-13T14:00:31.044Z,13.20
2023-02-13T14:03:25.334Z,13.20
2023-02-13T14:06:05.941Z,13.20
2023-02-13T14:09:10.749Z,13.20
2023-02-13T14:11:43.101Z,13.20
2023-02-13T14:14:52.555Z,13.10
2023-02-13T14:17:57.122Z,13.10
2023-02-13T14:20:37.481Z,13.20
2023-02-13T14:23:33.139Z,13.10
2023-02-13T14:26:31.967Z,13.20
2023-02-13T14:29:28.586Z,13.20
2023-02-13T14:32:19.946Z,13.20
2023-02-13T14:34:59.680Z,13.10
2023-02-13T14:37:36.954Z,13.20
2023-02-13T14:40:33.495Z,13.20
2023-02-13T14:43:34.632Z,13.10
2023-02-13T14:46:16.286Z,13.10
2023-02-13T14:48:50.653Z,13.10
2023-02-13T14:51:28.702Z,13.10
2023-02-13T14:54:05.346Z,13.00
2023-02-13T14:56:35.491Z,13.10
2023-02-13T14:59:13.912Z,13.00
2023-02-13T15:01:52.987Z,13.00
2023-02-13T15:04:28.577Z,13.00
2023-02-13T15:06:59.065Z,13.00
2023-02-13T15:09:34.200Z,13.00
2023-02-13T15:12:03.938Z,13.00
2023-02-13T15:14:34.924Z,13.00
2023-02-13T15:17:10.925Z,12.90
2023-02-13T15:19:45.967Z,12.80
2023-02-13T15:22:22.001Z,12.80
2023-02-13T15:24:51.393Z,12.80
2023-02-13T15:27:26.501Z,12.80
2023-02-13T15:29:58.427Z,12.80
2023-02-13T15:32:34.253Z,12.80
2023-02-13T15:35:03.421Z,12.80
2023-02-13T15:37:32.478Z,12.70
2023-02-13T15:40:20.820Z,12.70
2023-02-13T15:42:53.216Z,12.70
2023-02-13T15:45:24.360Z,12.70
2023-02-13T15:47:53.338Z,12.70
2023-02-13T15:50:34.962Z,12.50
2023-02-13T15:53:07.200Z,12.50
2023-02-13T15:55:38.479Z,12.50
2023-02-13T15:58:13.400Z,12.40
2023-02-13T16:00:43.759Z,12.40
2023-02-13T16:03:18.701Z,12.30
2023-02-13T16:05:47.983Z,12.20
2023-02-13T16:08:36.539Z,12.20
2023-02-13T16:11:28.082Z,12.10
2023-02-13T16:14:17.598Z,12.10
2023-02-13T16:16:58.173Z,12.00
2023-02-13T16:19:37.709Z,11.90
2023-02-13T16:22:26.631Z,11.90
2023-02-13T16:24:58.785Z,11.80
2023-02-13T16:27:29.156Z,11.70
2023-02-13T16:30:01.626Z,11.60
2023-02-13T16:32:32.965Z,11.50
2023-02-13T16:35:25.309Z,11.40
2023-02-13T16:37:57.422Z,11.20
2023-02-13T16:40:41.399Z,11.00
2023-02-13T16:43:39.168Z,10.80
2023-02-13T16:46:40.658Z,10.60
2023-02-13T16:49:20.494Z,10.50
2023-02-13T16:51:53.618Z,10.20
2023-02-13T16:54:38.394Z,10.10
2023-02-13T16:57:20.894Z,10.10
2023-02-13T16:59:59.980Z,10.00
2023-02-13T17:02:31.141Z,9.90
2023-02-13T17:05:17.385Z,9.70
2023-02-13T17:07:48.303Z,9.50
2023-02-13T17:10:22.298Z,9.20
2023-02-13T17:12:52.530Z,9.10
2023-02-13T17:15:24.620Z,9.10
2023-02-13T17:17:54.935Z,9.10
2023-02-13T17:20:26.923Z,9.00
2023-02-13T17:22:57.638Z,8.90
2023-02-13T17:25:29.395Z,8.80
2023-02-13T17:28:00.056Z,8.80
2023-02-13T17:30:32.120Z,8.70
2023-02-13T17:33:07.427Z,8.50
2023-02-13T17:35:36.416Z,8.50
2023-02-13T17:38:06.230Z,8.40
2023-02-13T17:40:34.560Z,8.30
2023-02-13T17:43:04.462Z,8.30
2023-02-13T17:45:34.886Z,8.20
2023-02-13T17:48:04.989Z,8.20
2023-02-13T17:50:35.284Z,8.10
2023-02-13T17:53:05.708Z,8.10
2023-02-13T17:55:35.734Z,7.90
2023-02-13T17:58:04.312Z,7.60
2023-02-13T18:00:35.627Z,7.50
2023-02-13T18:03:05.640Z,7.40
2023-02-13T18:05:34.352Z,7.40
2023-02-13T18:08:03.187Z,7.40
2023-02-13T18:10:34.248Z,7.30
2023-02-13T18:13:05.024Z,7.20
2023-02-13T18:15:33.917Z,7.20
2023-02-13T18:18:04.009Z,7.20
2023-02-13T18:20:32.479Z,7.30
2023-02-13T18:23:01.129Z,7.30
2023-02-13T18:25:29.747Z,7.20
2023-02-13T18:27:58.095Z,7.20
2023-02-13T18:30:26.632Z,7.20
2023-02-13T18:32:56.603Z,7.20
2023-02-13T18:35:26.678Z,7.20
2023-02-13T18:37:55.132Z,7.10
2023-02-13T18:40:23.482Z,7.10
2023-02-13T18:42:52.527Z,7.00
2023-02-13T18:45:21.091Z,6.80
2023-02-13T18:47:49.413Z,6.80
2023-02-13T18:50:17.902Z,6.80
2023-02-13T18:52:47.923Z,6.70
2023-02-13T18:55:16.656Z,6.60
2023-02-13T18:57:45.562Z,6.40
2023-02-13T19:00:17.160Z,6.20
2023-02-13T19:02:45.654Z,6.10
2023-02-13T19:05:14.156Z,6.00
2023-02-13T19:07:42.523Z,6.10
2023-02-13T19:10:14.848Z,6.10
2023-02-13T19:12:43.599Z,6.10
2023-02-13T19:15:12.059Z,6.10
2023-02-13T19:17:40.554Z,5.90
2023-02-13T19:20:11.013Z,5.90
2023-02-13T19:22:39.433Z,5.90
2023-02-13T19:25:08.410Z,5.80
2023-02-13T19:27:39.205Z,5.80
2023-02-13T19:30:09.752Z,5.80
2023-02-13T19:32:38.211Z,5.70
2023-02-13T19:35:07.575Z,5.70
2023-02-13T19:37:43.831Z,5.60
2023-02-13T19:40:14.257Z,5.60
2023-02-13T19:42:44.058Z,5.50
2023-02-13T19:45:12.661Z,5.40
2023-02-13T19:47:41.103Z,5.20
2023-02-13T19:50:10.613Z,5.20
2023-02-13T19:52:39.214Z,5.20
2023-02-13T19:55:08.536Z,5.10
2023-02-13T19:57:36.926Z,5.10
2023-02-13T20:00:09.849Z,5.00
2023-02-13T20:02:38.397Z,5.00
2023-02-13T20:05:08.814Z,5.00
2023-02-13T20:07:37.201Z,4.90
2023-02-13T20:10:08.139Z,4.70
2023-02-13T20:12:36.721Z,4.70
2023-02-13T20:15:07.103Z,4.70
2023-02-13T20:17:38.772Z,4.60
2023-02-13T20:20:09.003Z,4.60
2023-02-13T20:22:37.415Z,4.50
2023-02-13T20:25:06.540Z,4.60
2023-02-13T20:30:08.707Z,4.40
2023-02-13T20:32:38.446Z,4.40
2023-02-13T20:35:07.948Z,4.30
2023-02-13T20:37:36.428Z,4.20
2023-02-13T20:40:05.564Z,4.10
2023-02-13T20:42:34.941Z,4.10
2023-02-13T20:45:03.715Z,4.10
2023-02-13T20:47:33.455Z,4.10
2023-02-13T20:50:01.782Z,4.00
2023-02-13T20:52:30.200Z,3.90
2023-02-13T20:55:01.298Z,4.00
2023-02-13T20:57:29.642Z,3.80
2023-02-13T20:59:57.906Z,3.80
2023-02-13T21:02:26.372Z,3.70
2023-02-13T21:04:56.512Z,3.60
2023-02-13T21:07:24.869Z,3.50
2023-02-13T21:09:53.285Z,3.50
2023-02-13T21:12:21.584Z,3.40
2023-02-13T21:14:50.023Z,3.40
2023-02-13T21:17:18.451Z,3.40
2023-02-13T21:19:46.809Z,3.40
2023-02-13T21:22:16.566Z,3.30
2023-02-13T21:24:45.273Z,3.30
2023-02-13T21:27:13.642Z,3.20
2023-02-13T21:29:42.010Z,3.20
2023-02-13T21:32:10.488Z,3.20
2023-02-13T21:34:38.887Z,3.20
2023-02-13T21:37:07.699Z,3.10
2023-02-13T21:39:37.561Z,3.20
2023-02-13T21:42:06.157Z,3.10
2023-02-13T21:44:34.469Z,3.10
2023-02-13T21:47:03.428Z,3.10
2023-02-13T21:49:32.807Z,3.00
2023-02-13T21:52:01.204Z,2.90
2023-02-13T21:54:29.759Z,2.90
2023-02-13T21:56:59.503Z,2.90
2023-02-13T21:59:28.178Z,3.00
2023-02-13T22:01:58.204Z,3.00
2023-02-13T22:04:26.954Z,3.00
2023-02-13T22:06:55.335Z,2.90
2023-02-13T22:09:26.965Z,2.80
2023-02-13T22:11:55.508Z,2.80
2023-02-13T22:14:25.355Z,2.70
2023-02-13T22:16:53.851Z,2.60
2023-02-13T22:19:22.551Z,2.60
2023-02-13T22:21:51.409Z,2.60
2023-02-13T22:24:19.771Z,2.50
2023-02-13T22:26:48.186Z,2.60
2023-02-13T22:29:18.569Z,2.60
2023-02-13T22:31:48.597Z,2.50
2023-02-13T22:34:17.021Z,2.50
2023-02-13T22:36:45.528Z,2.50
2023-02-13T22:39:14.306Z,2.50
2023-02-13T22:41:45.541Z,2.50
2023-02-13T22:44:14.044Z,2.50
2023-02-13T22:46:42.408Z,2.50
2023-02-13T22:49:12.303Z,2.40
2023-02-13T22:51:40.651Z,2.40
2023-02-13T22:54:09.046Z,2.40
2023-02-13T22:56:37.428Z,2.40
2023-02-13T22:59:05.982Z,2.40
2023-02-13T23:01:34.458Z,2.40
2023-02-13T23:04:03.029Z,2.30
2023-02-13T23:06:32.940Z,2.20
2023-02-13T23:09:01.274Z,2.20
2023-02-13T23:11:48.052Z,2.10
2023-02-13T23:14:17.245Z,2.10
2023-02-13T23:17:03.708Z,2.10
2023-02-13T23:19:32.339Z,2.20
2023-02-13T23:22:02.532Z,2.20
2023-02-13T23:24:32.577Z,2.20
2023-02-13T23:27:01.528Z,2.20
2023-02-13T23:29:29.897Z,2.30
2023-02-13T23:31:58.488Z,2.60
2023-02-13T23:34:27.082Z,2.60
2023-02-13T23:36:55.425Z,2.60
2023-02-13T23:39:25.255Z,3.10
2023-02-13T23:41:53.664Z,3.20
2023-02-13T23:44:22.007Z,3.10
2023-02-13T23:46:50.373Z,3.00
2023-02-13T23:49:19.019Z,2.90
2023-02-13T23:51:47.472Z,2.80
2023-02-13T23:54:17.154Z,2.60
2023-02-13T23:56:47.265Z,2.60
2023-02-13T23:59:17.405Z,2.60
